sensor_id;sensor_type;location;lat;lon;timestamp;pressure;altitude;pressure_sealevel;temperature;humidity
57086;BME280;42964;42.910;23.792;2022-12-18T00:02:43;98462.63;;;7.33;100.00
57086;BME280;42964;42.910;23.792;2022-12-18T00:07:41;98478.19;;;6.98;100.00
57086;BME280;42964;42.910;23.792;2022-12-18T00:12:40;98478.50;;;6.77;100.00
57086;BME280;42964;42.910;23.792;2022-12-18T00:17:39;98479.63;;;6.55;100.00
57086;BME280;42964;42.910;23.792;2022-12-18T00:22:38;98488.34;;;6.27;100.00
57086;BME280;42964;42.910;23.792;2022-12-18T00:27:37;98497.31;;;6.10;100.00
57086;BME280;42964;42.910;23.792;2022-12-18T00:32:36;98501.47;;;6.05;100.00
57086;BME280;42964;42.910;23.792;2022-12-18T00:37:36;98501.41;;;6.03;100.00
57086;BME280;42964;42.910;23.792;2022-12-18T00:42:35;98511.00;;;6.09;100.00
57086;BME280;42964;42.910;23.792;2022-12-18T00:47:52;98509.66;;;5.93;100.00
57086;BME280;42964;42.910;23.792;2022-12-18T00:52:52;98521.41;;;5.83;100.00
57086;BME280;42964;42.910;23.792;2022-12-18T00:57:51;98521.13;;;5.74;100.00
57086;BME280;42964;42.910;23.792;2022-12-18T01:02:51;98539.00;;;5.69;100.00
57086;BME280;42964;42.910;23.792;2022-12-18T01:07:50;98532.31;;;5.74;100.00
57086;BME280;42964;42.910;23.792;2022-12-18T01:12:49;98532.97;;;5.67;100.00
57086;BME280;42964;42.910;23.792;2022-12-18T01:17:48;98541.44;;;5.65;100.00
57086;BME280;42964;42.910;23.792;2022-12-18T01:22:47;98543.59;;;5.78;100.00
57086;BME280;42964;42.910;23.792;2022-12-18T01:27:46;98541.22;;;5.84;100.00
57086;BME280;42964;42.910;23.792;2022-12-18T01:32:45;98539.50;;;5.58;100.00
57086;BME280;42964;42.910;23.792;2022-12-18T01:37:44;98557.03;;;5.69;100.00
57086;BME280;42964;42.910;23.792;2022-12-18T01:42:43;98559.91;;;5.79;100.00
57086;BME280;42964;42.910;23.792;2022-12-18T01:47:45;98560.31;;;5.64;100.00
57086;BME280;42964;42.910;23.792;2022-12-18T01:53:16;98561.56;;;5.76;100.00
57086;BME280;42964;42.910;23.792;2022-12-18T01:58:16;98570.47;;;5.86;100.00
57086;BME280;42964;42.910;23.792;2022-12-18T02:03:15;98563.75;;;5.93;100.00
57086;BME280;42964;42.910;23.792;2022-12-18T02:08:21;98571.13;;;6.09;100.00
57086;BME280;42964;42.910;23.792;2022-12-18T02:18:44;98569.38;;;6.37;100.00
57086;BME280;42964;42.910;23.792;2022-12-18T02:28:53;98578.22;;;6.45;100.00
57086;BME280;42964;42.910;23.792;2022-12-18T02:33:56;98584.41;;;6.52;100.00
57086;BME280;42964;42.910;23.792;2022-12-18T02:38:58;98596.78;;;6.64;100.00
57086;BME280;42964;42.910;23.792;2022-12-18T02:44:00;98596.81;;;6.65;100.00
57086;BME280;42964;42.910;23.792;2022-12-18T02:49:26;98601.03;;;6.61;100.00
57086;BME280;42964;42.910;23.792;2022-12-18T03:05:12;98612.25;;;6.64;100.00
57086;BME280;42964;42.910;23.792;2022-12-18T03:10:14;98615.84;;;6.69;100.00
57086;BME280;42964;42.910;23.792;2022-12-18T03:15:22;98613.19;;;6.67;100.00
57086;BME280;42964;42.910;23.792;2022-12-18T03:20:25;98621.19;;;6.76;100.00
57086;BME280;42964;42.910;23.792;2022-12-18T03:25:26;98591.38;;;6.56;100.00
57086;BME280;42964;42.910;23.792;2022-12-18T03:30:28;98639.00;;;6.67;100.00
57086;BME280;42964;42.910;23.792;2022-12-18T03:35:37;98648.25;;;6.60;100.00
57086;BME280;42964;42.910;23.792;2022-12-18T03:41:31;98652.09;;;6.45;100.00
57086;BME280;42964;42.910;23.792;2022-12-18T03:46:33;98664.03;;;6.41;100.00
57086;BME280;42964;42.910;23.792;2022-12-18T03:56:53;98686.03;;;6.03;100.00
57086;BME280;42964;42.910;23.792;2022-12-18T04:01:56;98692.78;;;5.99;100.00
57086;BME280;42964;42.910;23.792;2022-12-18T04:06:58;98681.69;;;5.74;100.00
57086;BME280;42964;42.910;23.792;2022-12-18T04:11:57;98696.63;;;5.85;100.00
57086;BME280;42964;42.910;23.792;2022-12-18T04:16:56;98696.06;;;5.68;100.00
57086;BME280;42964;42.910;23.792;2022-12-18T04:21:55;98708.47;;;5.54;100.00
57086;BME280;42964;42.910;23.792;2022-12-18T04:26:54;98705.56;;;5.45;100.00
57086;BME280;42964;42.910;23.792;2022-12-18T04:31:53;98712.13;;;5.37;100.00
57086;BME280;42964;42.910;23.792;2022-12-18T04:36:52;98726.34;;;5.25;100.00
57086;BME280;42964;42.910;23.792;2022-12-18T04:41:51;98729.97;;;5.06;100.00
57086;BME280;42964;42.910;23.792;2022-12-18T04:46:50;98738.97;;;4.95;100.00
57086;BME280;42964;42.910;23.792;2022-12-18T04:51:49;98745.44;;;5.08;100.00
57086;BME280;42964;42.910;23.792;2022-12-18T04:56:48;98754.44;;;5.19;100.00
57086;BME280;42964;42.910;23.792;2022-12-18T05:01:47;98761.81;;;5.34;100.00
57086;BME280;42964;42.910;23.792;2022-12-18T05:06:46;98767.63;;;5.52;100.00
57086;BME280;42964;42.910;23.792;2022-12-18T05:11:45;98776.06;;;5.72;100.00
57086;BME280;42964;42.910;23.792;2022-12-18T05:16:45;98787.75;;;5.88;100.00
57086;BME280;42964;42.910;23.792;2022-12-18T05:21:44;98789.97;;;6.03;100.00
57086;BME280;42964;42.910;23.792;2022-12-18T05:26:43;98793.50;;;6.07;100.00
57086;BME280;42964;42.910;23.792;2022-12-18T05:31:42;98799.03;;;5.92;100.00
57086;BME280;42964;42.910;23.792;2022-12-18T05:36:41;98813.63;;;5.43;100.00
57086;BME280;42964;42.910;23.792;2022-12-18T05:41:40;98825.56;;;5.41;100.00
57086;BME280;42964;42.910;23.792;2022-12-18T05:46:42;98836.88;;;5.22;100.00
57086;BME280;42964;42.910;23.792;2022-12-18T05:51:41;98835.41;;;5.29;100.00
57086;BME280;42964;42.910;23.792;2022-12-18T05:56:40;98831.53;;;5.40;100.00
57086;BME280;42964;42.910;23.792;2022-12-18T06:01:39;98841.25;;;5.47;100.00
57086;BME280;42964;42.910;23.792;2022-12-18T06:06:38;98860.72;;;5.41;100.00
57086;BME280;42964;42.910;23.792;2022-12-18T06:11:37;98846.66;;;5.31;100.00
57086;BME280;42964;42.910;23.792;2022-12-18T06:16:37;98856.59;;;5.44;100.00
57086;BME280;42964;42.910;23.792;2022-12-18T06:21:36;98863.91;;;5.58;100.00
57086;BME280;42964;42.910;23.792;2022-12-18T06:26:38;98877.72;;;5.60;100.00
57086;BME280;42964;42.910;23.792;2022-12-18T06:31:37;98891.19;;;5.52;100.00
57086;BME280;42964;42.910;23.792;2022-12-18T06:36:36;98891.34;;;5.55;100.00
57086;BME280;42964;42.910;23.792;2022-12-18T06:41:35;98904.47;;;5.63;100.00
57086;BME280;42964;42.910;23.792;2022-12-18T06:46:34;98909.50;;;5.60;100.00
57086;BME280;42964;42.910;23.792;2022-12-18T06:51:33;98926.66;;;5.60;100.00
57086;BME280;42964;42.910;23.792;2022-12-18T06:56:32;98921.16;;;5.50;100.00
57086;BME280;42964;42.910;23.792;2022-12-18T07:01:31;98923.03;;;5.54;100.00
57086;BME280;42964;42.910;23.792;2022-12-18T07:06:30;98933.44;;;5.58;100.00
57086;BME280;42964;42.910;23.792;2022-12-18T07:11:29;98900.44;;;5.25;100.00
57086;BME280;42964;42.910;23.792;2022-12-18T07:16:28;98945.53;;;5.60;100.00
57086;BME280;42964;42.910;23.792;2022-12-18T07:21:27;98942.63;;;5.73;100.00
57086;BME280;42964;42.910;23.792;2022-12-18T07:26:26;98951.13;;;5.71;100.00
57086;BME280;42964;42.910;23.792;2022-12-18T07:31:26;98945.59;;;5.84;100.00
57086;BME280;42964;42.910;23.792;2022-12-18T07:36:25;98961.22;;;5.89;100.00
57086;BME280;42964;42.910;23.792;2022-12-18T07:41:24;98962.09;;;5.89;100.00
57086;BME280;42964;42.910;23.792;2022-12-18T07:46:23;98953.41;;;6.10;100.00
57086;BME280;42964;42.910;23.792;2022-12-18T07:51:22;98954.53;;;6.18;100.00
57086;BME280;42964;42.910;23.792;2022-12-18T07:56:21;98957.44;;;6.27;100.00
57086;BME280;42964;42.910;23.792;2022-12-18T08:01:20;98968.97;;;6.37;100.00
57086;BME280;42964;42.910;23.792;2022-12-18T08:06:19;98967.84;;;6.54;100.00
57086;BME280;42964;42.910;23.792;2022-12-18T08:11:18;98970.16;;;6.72;100.00
57086;BME280;42964;42.910;23.792;2022-12-18T08:16:17;98968.69;;;6.79;100.00
57086;BME280;42964;42.910;23.792;2022-12-18T08:21:19;98973.38;;;6.91;100.00
57086;BME280;42964;42.910;23.792;2022-12-18T08:26:20;98988.44;;;7.04;100.00
57086;BME280;42964;42.910;23.792;2022-12-18T08:31:20;98992.19;;;7.14;100.00
57086;BME280;42964;42.910;23.792;2022-12-18T08:36:20;98990.03;;;7.00;100.00
57086;BME280;42964;42.910;23.792;2022-12-18T08:41:19;99001.72;;;7.16;100.00
57086;BME280;42964;42.910;23.792;2022-12-18T08:46:20;99006.38;;;7.27;100.00
57086;BME280;42964;42.910;23.792;2022-12-18T08:51:19;98990.06;;;7.28;100.00
57086;BME280;42964;42.910;23.792;2022-12-18T08:56:18;98998.66;;;7.01;100.00
57086;BME280;42964;42.910;23.792;2022-12-18T09:01:17;99014.00;;;6.96;100.00
57086;BME280;42964;42.910;23.792;2022-12-18T09:06:18;99013.22;;;6.99;100.00
57086;BME280;42964;42.910;23.792;2022-12-18T09:11:24;99013.09;;;6.96;100.00
57086;BME280;42964;42.910;23.792;2022-12-18T09:16:25;99009.56;;;6.92;100.00
57086;BME280;42964;42.910;23.792;2022-12-18T09:21:26;99022.41;;;6.91;99.52
57086;BME280;42964;42.910;23.792;2022-12-18T09:26:26;99026.53;;;6.86;98.38
57086;BME280;42964;42.910;23.792;2022-12-18T09:31:25;99031.31;;;6.75;97.81
57086;BME280;42964;42.910;23.792;2022-12-18T09:36:24;99027.53;;;6.65;98.16
57086;BME280;42964;42.910;23.792;2022-12-18T09:41:56;99030.56;;;6.77;95.44
57086;BME280;42964;42.910;23.792;2022-12-18T09:52:37;99028.53;;;6.21;78.14
57086;BME280;42964;42.910;23.792;2022-12-18T09:57:45;99031.91;;;5.95;74.57
57086;BME280;42964;42.910;23.792;2022-12-18T10:02:47;99045.94;;;6.04;73.54
57086;BME280;42964;42.910;23.792;2022-12-18T10:08:03;99040.81;;;6.28;77.08
57086;BME280;42964;42.910;23.792;2022-12-18T10:23:54;99038.97;;;6.24;69.71
57086;BME280;42964;42.910;23.792;2022-12-18T10:28:57;99041.53;;;6.48;73.59
57086;BME280;42964;42.910;23.792;2022-12-18T10:33:56;99030.19;;;6.67;73.98
57086;BME280;42964;42.910;23.792;2022-12-18T10:39:15;99031.44;;;6.78;73.42
57086;BME280;42964;42.910;23.792;2022-12-18T10:44:22;99045.75;;;6.94;71.86
57086;BME280;42964;42.910;23.792;2022-12-18T10:49:26;99038.94;;;6.72;67.32
57086;BME280;42964;42.910;23.792;2022-12-18T10:54:26;99054.50;;;6.73;66.33
57086;BME280;42964;42.910;23.792;2022-12-18T10:59:26;99048.31;;;6.68;63.73
57086;BME280;42964;42.910;23.792;2022-12-18T11:04:28;99045.09;;;6.51;63.33
57086;BME280;42964;42.910;23.792;2022-12-18T11:09:32;99037.50;;;6.54;63.97
57086;BME280;42964;42.910;23.792;2022-12-18T11:14:54;99046.44;;;6.64;63.92
57086;BME280;42964;42.910;23.792;2022-12-18T11:19:59;99053.47;;;6.68;64.15
57086;BME280;42964;42.910;23.792;2022-12-18T11:24:59;99065.69;;;6.74;63.10
57086;BME280;42964;42.910;23.792;2022-12-18T11:46:14;99062.50;;;7.07;60.32
57086;BME280;42964;42.910;23.792;2022-12-18T11:51:25;99057.97;;;7.25;60.28
57086;BME280;42964;42.910;23.792;2022-12-18T11:56:33;99030.56;;;7.03;58.35
57086;BME280;42964;42.910;23.792;2022-12-18T12:28:05;99054.03;;;6.85;52.81
57086;BME280;42964;42.910;23.792;2022-12-18T12:38:25;99057.50;;;6.86;53.37
57086;BME280;42964;42.910;23.792;2022-12-18T12:43:44;99062.56;;;6.82;51.48
57086;BME280;42964;42.910;23.792;2022-12-18T12:48:56;99070.56;;;6.90;51.42
57086;BME280;42964;42.910;23.792;2022-12-18T12:53:59;99072.28;;;6.91;49.08
57086;BME280;42964;42.910;23.792;2022-12-18T12:59:21;99046.47;;;6.90;48.16
57086;BME280;42964;42.910;23.792;2022-12-18T13:04:30;99059.28;;;6.88;47.65
57086;BME280;42964;42.910;23.792;2022-12-18T13:09:32;99056.53;;;6.82;46.98
57086;BME280;42964;42.910;23.792;2022-12-18T13:14:37;99074.44;;;7.03;48.45
57086;BME280;42964;42.910;23.792;2022-12-18T13:19:36;99073.00;;;7.11;50.05
57086;BME280;42964;42.910;23.792;2022-12-18T13:24:35;99082.91;;;6.99;49.10
57086;BME280;42964;42.910;23.792;2022-12-18T13:29:45;99091.53;;;6.99;49.43
57086;BME280;42964;42.910;23.792;2022-12-18T13:34:45;99089.97;;;7.04;50.51
57086;BME280;42964;42.910;23.792;2022-12-18T13:39:43;99094.47;;;7.10;51.28
57086;BME280;42964;42.910;23.792;2022-12-18T13:44:42;99098.28;;;7.21;51.33
57086;BME280;42964;42.910;23.792;2022-12-18T13:49:43;99098.09;;;7.15;51.32
57086;BME280;42964;42.910;23.792;2022-12-18T13:54:45;99105.56;;;6.83;51.30
57086;BME280;42964;42.910;23.792;2022-12-18T13:59:45;99105.09;;;6.70;51.87
57086;BME280;42964;42.910;23.792;2022-12-18T14:04:45;99116.66;;;6.57;50.61
57086;BME280;42964;42.910;23.792;2022-12-18T14:09:48;99124.75;;;6.44;50.79
57086;BME280;42964;42.910;23.792;2022-12-18T14:14:50;99120.78;;;6.29;50.22
57086;BME280;42964;42.910;23.792;2022-12-18T14:19:51;99126.53;;;6.22;50.68
57086;BME280;42964;42.910;23.792;2022-12-18T14:25:15;99139.19;;;6.16;50.82
57086;BME280;42964;42.910;23.792;2022-12-18T14:35:23;99134.78;;;6.13;51.43
57086;BME280;42964;42.910;23.792;2022-12-18T14:40:22;99138.69;;;6.04;51.89
57086;BME280;42964;42.910;23.792;2022-12-18T14:50:33;99148.41;;;5.88;52.14
57086;BME280;42964;42.910;23.792;2022-12-18T14:55:32;99144.47;;;5.75;51.99
57086;BME280;42964;42.910;23.792;2022-12-18T15:00:31;99150.47;;;5.55;52.06
57086;BME280;42964;42.910;23.792;2022-12-18T15:05:32;99149.78;;;5.38;52.68
57086;BME280;42964;42.910;23.792;2022-12-18T15:10:32;99158.91;;;5.30;53.50
57086;BME280;42964;42.910;23.792;2022-12-18T15:20:46;99171.88;;;5.33;54.39
57086;BME280;42964;42.910;23.792;2022-12-18T15:26:09;99167.22;;;5.24;52.67
57086;BME280;42964;42.910;23.792;2022-12-18T15:36:13;99190.97;;;5.38;53.09
57086;BME280;42964;42.910;23.792;2022-12-18T15:41:14;99190.91;;;5.37;52.47
57086;BME280;42964;42.910;23.792;2022-12-18T15:46:16;99202.09;;;5.18;50.26
57086;BME280;42964;42.910;23.792;2022-12-18T15:51:24;99207.00;;;5.11;50.63
57086;BME280;42964;42.910;23.792;2022-12-18T15:56:25;99215.56;;;4.92;50.43
57086;BME280;42964;42.910;23.792;2022-12-18T16:01:51;99226.88;;;4.96;50.83
57086;BME280;42964;42.910;23.792;2022-12-18T16:06:51;99233.94;;;5.00;51.86
57086;BME280;42964;42.910;23.792;2022-12-18T16:11:50;99237.88;;;5.11;51.79
57086;BME280;42964;42.910;23.792;2022-12-18T16:16:51;99247.31;;;4.93;50.55
57086;BME280;42964;42.910;23.792;2022-12-18T16:21:52;99261.44;;;4.83;50.05
57086;BME280;42964;42.910;23.792;2022-12-18T16:26:55;99242.63;;;4.66;50.19
57086;BME280;42964;42.910;23.792;2022-12-18T16:31:58;99260.31;;;4.96;51.28
57086;BME280;42964;42.910;23.792;2022-12-18T16:37:00;99270.50;;;5.12;53.15
57086;BME280;42964;42.910;23.792;2022-12-18T16:42:01;99279.59;;;5.24;55.31
57086;BME280;42964;42.910;23.792;2022-12-18T16:47:00;99293.56;;;5.11;55.29
57086;BME280;42964;42.910;23.792;2022-12-18T16:52:00;99285.53;;;5.03;54.19
57086;BME280;42964;42.910;23.792;2022-12-18T16:56:59;99299.28;;;4.86;51.88
57086;BME280;42964;42.910;23.792;2022-12-18T17:01:58;99322.88;;;4.59;52.47
57086;BME280;42964;42.910;23.792;2022-12-18T17:06:57;99334.47;;;4.33;53.20
57086;BME280;42964;42.910;23.792;2022-12-18T17:11:56;99353.38;;;4.17;53.79
57086;BME280;42964;42.910;23.792;2022-12-18T17:16:55;99364.84;;;3.90;55.48
57086;BME280;42964;42.910;23.792;2022-12-18T17:22:00;99387.63;;;3.67;56.57
57086;BME280;42964;42.910;23.792;2022-12-18T17:26:59;99390.19;;;3.67;56.55
57086;BME280;42964;42.910;23.792;2022-12-18T17:31:58;99394.84;;;3.58;57.11
57086;BME280;42964;42.910;23.792;2022-12-18T17:36:57;99403.59;;;3.45;58.05
57086;BME280;42964;42.910;23.792;2022-12-18T17:41:56;99401.09;;;3.47;57.47
57086;BME280;42964;42.910;23.792;2022-12-18T17:46:55;99394.94;;;3.43;57.67
57086;BME280;42964;42.910;23.792;2022-12-18T17:51:54;99391.00;;;3.33;57.88
57086;BME280;42964;42.910;23.792;2022-12-18T17:56:53;99403.63;;;3.30;57.78
57086;BME280;42964;42.910;23.792;2022-12-18T18:01:51;99398.72;;;3.18;58.28
57086;BME280;42964;42.910;23.792;2022-12-18T18:06:50;99404.78;;;3.04;59.33
57086;BME280;42964;42.910;23.792;2022-12-18T18:11:49;99405.34;;;2.84;60.21
57086;BME280;42964;42.910;23.792;2022-12-18T18:17:07;99404.13;;;2.77;61.71
57086;BME280;42964;42.910;23.792;2022-12-18T18:22:05;99408.38;;;2.62;61.99
57086;BME280;42964;42.910;23.792;2022-12-18T18:27:04;99416.25;;;2.50;63.26
57086;BME280;42964;42.910;23.792;2022-12-18T18:32:03;99421.00;;;2.44;64.68
57086;BME280;42964;42.910;23.792;2022-12-18T18:37:02;99415.34;;;2.20;66.62
57086;BME280;42964;42.910;23.792;2022-12-18T18:42:02;99419.28;;;2.00;67.23
57086;BME280;42964;42.910;23.792;2022-12-18T18:47:01;99446.72;;;1.87;67.95
57086;BME280;42964;42.910;23.792;2022-12-18T18:52:00;99456.75;;;1.69;69.30
57086;BME280;42964;42.910;23.792;2022-12-18T18:57:00;99472.53;;;1.36;70.74
57086;BME280;42964;42.910;23.792;2022-12-18T19:01:59;99486.94;;;1.20;71.18
57086;BME280;42964;42.910;23.792;2022-12-18T19:06:58;99481.81;;;1.07;72.14
57086;BME280;42964;42.910;23.792;2022-12-18T19:11:57;99508.63;;;1.00;72.88
57086;BME280;42964;42.910;23.792;2022-12-18T19:17:15;99507.34;;;0.94;73.25
57086;BME280;42964;42.910;23.792;2022-12-18T19:22:14;99510.41;;;1.01;73.30
57086;BME280;42964;42.910;23.792;2022-12-18T19:27:13;99522.00;;;0.96;74.44
57086;BME280;42964;42.910;23.792;2022-12-18T19:32:12;99530.25;;;0.79;75.41
57086;BME280;42964;42.910;23.792;2022-12-18T19:37:11;99520.78;;;0.78;75.51
57086;BME280;42964;42.910;23.792;2022-12-18T19:42:10;99539.75;;;0.68;76.20
57086;BME280;42964;42.910;23.792;2022-12-18T19:47:08;99536.38;;;0.56;76.79
57086;BME280;42964;42.910;23.792;2022-12-18T19:52:07;99545.97;;;0.46;77.31
57086;BME280;42964;42.910;23.792;2022-12-18T19:57:07;99556.72;;;0.29;79.01
57086;BME280;42964;42.910;23.792;2022-12-18T20:02:11;99566.06;;;0.17;79.58
57086;BME280;42964;42.910;23.792;2022-12-18T20:07:11;99565.56;;;0.09;78.96
57086;BME280;42964;42.910;23.792;2022-12-18T20:12:10;99562.69;;;0.04;79.01
57086;BME280;42964;42.910;23.792;2022-12-18T20:17:09;99563.69;;;0.07;79.06
57086;BME280;42964;42.910;23.792;2022-12-18T20:22:08;99576.47;;;-0.05;79.19
57086;BME280;42964;42.910;23.792;2022-12-18T20:27:07;99584.66;;;0.02;78.15
57086;BME280;42964;42.910;23.792;2022-12-18T20:32:06;99589.34;;;-0.04;77.13
57086;BME280;42964;42.910;23.792;2022-12-18T20:37:05;99599.56;;;-0.04;76.45
57086;BME280;42964;42.910;23.792;2022-12-18T20:42:04;99608.28;;;-0.00;73.04
57086;BME280;42964;42.910;23.792;2022-12-18T20:47:03;99607.94;;;0.07;73.19
57086;BME280;42964;42.910;23.792;2022-12-18T20:52:02;99600.97;;;0.04;72.03
57086;BME280;42964;42.910;23.792;2022-12-18T20:57:02;99612.97;;;0.05;71.28
57086;BME280;42964;42.910;23.792;2022-12-18T21:02:00;99606.63;;;0.00;70.09
57086;BME280;42964;42.910;23.792;2022-12-18T21:06:59;99610.19;;;0.02;70.84
57086;BME280;42964;42.910;23.792;2022-12-18T21:11:58;99602.19;;;-0.02;71.04
57086;BME280;42964;42.910;23.792;2022-12-18T21:17:15;99605.22;;;-0.08;71.69
57086;BME280;42964;42.910;23.792;2022-12-18T21:22:14;99606.97;;;-0.07;71.02
57086;BME280;42964;42.910;23.792;2022-12-18T21:27:13;99614.22;;;-0.13;71.00
57086;BME280;42964;42.910;23.792;2022-12-18T21:32:13;99612.41;;;-0.14;71.08
57086;BME280;42964;42.910;23.792;2022-12-18T21:37:12;99621.41;;;-0.19;72.01
57086;BME280;42964;42.910;23.792;2022-12-18T21:42:11;99608.13;;;-0.15;71.10
57086;BME280;42964;42.910;23.792;2022-12-18T21:47:29;99617.09;;;-0.20;71.94
57086;BME280;42964;42.910;23.792;2022-12-18T21:52:28;99624.44;;;-0.37;72.24
57086;BME280;42964;42.910;23.792;2022-12-18T21:57:27;99624.13;;;-0.41;72.38
57086;BME280;42964;42.910;23.792;2022-12-18T22:02:26;99623.00;;;-0.45;72.19
57086;BME280;42964;42.910;23.792;2022-12-18T22:07:25;99625.66;;;-0.43;71.74
57086;BME280;42964;42.910;23.792;2022-12-18T22:12:25;99634.31;;;-0.41;70.93
57086;BME280;42964;42.910;23.792;2022-12-18T22:17:33;99624.13;;;-0.41;71.19
57086;BME280;42964;42.910;23.792;2022-12-18T22:22:32;99637.28;;;-0.47;71.22
57086;BME280;42964;42.910;23.792;2022-12-18T22:27:31;99619.09;;;-0.51;70.97
57086;BME280;42964;42.910;23.792;2022-12-18T22:32:34;99620.00;;;-0.51;70.63
57086;BME280;42964;42.910;23.792;2022-12-18T22:37:33;99615.88;;;-0.61;71.98
57086;BME280;42964;42.910;23.792;2022-12-18T22:42:32;99598.50;;;-0.66;72.23
57086;BME280;42964;42.910;23.792;2022-12-18T22:47:31;99603.81;;;-0.63;72.39
57086;BME280;42964;42.910;23.792;2022-12-18T22:52:30;99595.94;;;-0.66;72.49
57086;BME280;42964;42.910;23.792;2022-12-18T22:57:29;99592.25;;;-0.70;73.08
57086;BME280;42964;42.910;23.792;2022-12-18T23:02:28;99592.72;;;-0.75;74.49
57086;BME280;42964;42.910;23.792;2022-12-18T23:07:27;99607.34;;;-0.85;75.49
57086;BME280;42964;42.910;23.792;2022-12-18T23:12:26;99603.97;;;-1.07;76.17
57086;BME280;42964;42.910;23.792;2022-12-18T23:17:25;99610.69;;;-1.19;75.99
57086;BME280;42964;42.910;23.792;2022-12-18T23:22:24;99611.78;;;-1.28;77.45
57086;BME280;42964;42.910;23.792;2022-12-18T23:27:23;99626.69;;;-1.66;79.33
57086;BME280;42964;42.910;23.792;2022-12-18T23:32:22;99638.41;;;-1.90;83.11
57086;BME280;42964;42.910;23.792;2022-12-18T23:37:21;99637.03;;;-1.97;83.15
57086;BME280;42964;42.910;23.792;2022-12-18T23:42:20;99643.09;;;-2.17;84.54
57086;BME280;42964;42.910;23.792;2022-12-18T23:47:19;99646.41;;;-2.18;84.12
57086;BME280;42964;42.910;23.792;2022-12-18T23:52:18;99648.41;;;-2.14;84.03
57086;BME280;42964;42.910;23.792;2022-12-18T23:57:17;99646.25;;;-2.09;83.58
